createdAt,value
2018-05-17T00:00:17.367Z,58.08
2018-05-17T00:01:17.410Z,58.27
2018-05-17T00:02:17.412Z,58.17
2018-05-17T00:03:17.441Z,58.56
2018-05-17T00:04:17.453Z,58.27
2018-05-17T00:05:17.488Z,57.98
2018-05-17T00:06:17.490Z,58.08
2018-05-17T00:07:17.506Z,58.27
2018-05-17T00:08:17.528Z,58.37
2018-05-17T00:09:17.286Z,58.27
2018-05-17T00:10:17.591Z,58.17
2018-05-17T00:11:17.337Z,57.98
2018-05-17T00:12:17.614Z,58.08
2018-05-17T00:13:17.371Z,58.37
2018-05-17T00:14:17.669Z,58.37
2018-05-17T00:15:17.668Z,58.37
2018-05-17T00:16:17.693Z,57.89
2018-05-17T00:17:17.743Z,57.89
2018-05-17T00:18:17.733Z,58.08
2018-05-17T00:19:17.772Z,58.08
2018-05-17T00:20:17.828Z,57.98
2018-05-17T00:21:17.813Z,58.37
2018-05-17T00:22:17.551Z,58.27
2018-05-17T00:23:17.836Z,58.17
2018-05-17T00:24:18.078Z,58.37
2018-05-17T00:25:17.888Z,58.08
2018-05-17T00:26:17.905Z,58.46
2018-05-17T00:27:17.932Z,57.98
2018-05-17T00:28:17.956Z,58.27
2018-05-17T00:29:17.974Z,58.17
2018-05-17T00:30:17.975Z,58.08
2018-05-17T00:31:17.999Z,57.98
2018-05-17T00:32:17.756Z,58.27
2018-05-17T00:33:18.039Z,58.17
2018-05-17T00:34:18.068Z,58.17
2018-05-17T00:35:18.193Z,57.98
2018-05-17T00:36:18.107Z,57.89
2018-05-17T00:37:18.133Z,58.56
2018-05-17T00:38:17.882Z,58.27
2018-05-17T00:39:18.168Z,58.65
2018-05-17T00:40:18.196Z,58.17
2018-05-17T00:41:18.193Z,58.27
2018-05-17T00:42:18.245Z,58.46
2018-05-17T00:43:18.254Z,58.65
2018-05-17T00:44:18.254Z,58.65
2018-05-17T00:45:18.280Z,59.23
2018-05-17T00:46:18.315Z,58.94
2018-05-17T00:47:18.324Z,59.04
2018-05-17T00:48:18.355Z,59.33
2018-05-17T00:49:18.372Z,58.94
2018-05-17T00:50:18.384Z,58.94
2018-05-17T00:51:18.395Z,58.84
2018-05-17T00:52:18.771Z,58.75
2018-05-17T00:53:18.448Z,58.94
2018-05-17T00:54:18.208Z,59.13
2018-05-17T00:55:18.477Z,59.23
2018-05-17T00:56:18.499Z,58.65
2018-05-17T00:57:18.518Z,58.46
2018-05-17T00:58:18.559Z,58.94
2018-05-17T00:59:18.564Z,58.84
2018-05-17T01:00:18.573Z,58.75
2018-05-17T01:01:18.616Z,58.75
2018-05-17T01:02:18.351Z,58.56
2018-05-17T01:03:18.648Z,58.94
2018-05-17T01:04:18.671Z,58.65
2018-05-17T01:05:18.681Z,58.94
2018-05-17T01:06:18.717Z,59.2
2018-05-17T01:07:18.735Z,58.94
2018-05-17T01:08:18.750Z,59.3
2018-05-17T01:09:18.759Z,58.94
2018-05-17T01:10:18.782Z,59.33
2018-05-17T01:11:18.859Z,59.23
2018-05-17T01:12:18.813Z,59.39
2018-05-17T01:13:18.853Z,59.3
2018-05-17T01:14:18.598Z,59.23
2018-05-17T01:15:19.094Z,59.11
2018-05-17T01:16:18.894Z,59.2
2018-05-17T01:17:18.938Z,59.39
2018-05-17T01:18:18.953Z,59.01
2018-05-17T01:19:18.697Z,59.11
2018-05-17T01:20:18.722Z,59.01
2018-05-17T01:21:19.011Z,59.2
2018-05-17T01:22:19.035Z,59.58
2018-05-17T01:23:19.055Z,59.11
2018-05-17T01:24:19.057Z,59.11
2018-05-17T01:25:19.093Z,59.2
2018-05-17T01:26:19.130Z,59.01
2018-05-17T01:27:19.137Z,58.91
2018-05-17T01:28:19.143Z,59.77
2018-05-17T01:29:19.158Z,59.77
2018-05-17T01:30:19.172Z,59.58
2018-05-17T01:31:18.937Z,59.39
2018-05-17T01:32:19.218Z,59.48
2018-05-17T01:33:19.244Z,59.3
2018-05-17T01:34:19.254Z,59.58
2018-05-17T01:35:19.277Z,59.2
2018-05-17T01:36:19.308Z,59.48
2018-05-17T01:37:19.275Z,59.68
2018-05-17T01:38:19.342Z,59.48
2018-05-17T01:39:19.369Z,59.48
2018-05-17T01:40:19.390Z,59.58
2018-05-17T01:41:19.413Z,59.77
2018-05-17T01:42:19.418Z,59.77
2018-05-17T01:43:19.453Z,60.06
2018-05-17T01:44:19.476Z,59.39
2018-05-17T01:45:19.557Z,59.58
2018-05-17T01:46:19.500Z,59.97
2018-05-17T01:47:19.526Z,59.77
2018-05-17T01:48:19.542Z,59.87
2018-05-17T01:49:19.559Z,59.77
2018-05-17T01:50:19.585Z,59.87
2018-05-17T01:51:19.590Z,59.58
2018-05-17T01:52:19.626Z,59.87
2018-05-17T01:53:19.379Z,59.97
2018-05-17T01:54:19.668Z,60.16
2018-05-17T01:55:19.682Z,60.06
2018-05-17T01:56:19.693Z,60.16
2018-05-17T01:57:19.458Z,60.06
2018-05-17T01:58:19.938Z,60.16
2018-05-17T01:59:19.690Z,60.16
2018-05-17T02:00:19.866Z,60.16
2018-05-17T02:01:19.787Z,60.16
2018-05-17T02:02:19.814Z,59.97
2018-05-17T02:03:19.582Z,60.25
2018-05-17T02:04:19.874Z,60.25
2018-05-17T02:05:19.873Z,60.16
2018-05-17T02:06:19.895Z,60.35
2018-05-17T02:07:19.935Z,60.25
2018-05-17T02:08:19.943Z,60.16
2018-05-17T02:09:19.966Z,60.35
2018-05-17T02:10:19.970Z,60.54
2018-05-17T02:11:20.039Z,60.35
2018-05-17T02:12:19.744Z,60.54
2018-05-17T02:13:20.042Z,60.35
2018-05-17T02:14:19.791Z,60.25
2018-05-17T02:15:20.080Z,60.35
2018-05-17T02:16:20.105Z,60.25
2018-05-17T02:17:20.112Z,60.16
2018-05-17T02:18:20.137Z,60.54
2018-05-17T02:19:20.322Z,60.54
2018-05-17T02:20:19.902Z,60.64
2018-05-17T02:21:20.199Z,60.25
2018-05-17T02:22:20.225Z,60.44
2018-05-17T02:23:20.250Z,60.44
2018-05-17T02:24:20.261Z,60.35
2018-05-17T02:25:20.265Z,60.64
2018-05-17T02:26:20.350Z,60.54
2018-05-17T02:27:20.306Z,60.64
2018-05-17T02:28:20.327Z,60.54
2018-05-17T02:29:20.363Z,60.64
2018-05-17T02:30:20.383Z,60.44
2018-05-17T02:31:20.394Z,60.35
2018-05-17T02:32:20.142Z,60.64
2018-05-17T02:33:20.421Z,60.54
2018-05-17T02:34:20.442Z,60.93
2018-05-17T02:35:20.193Z,60.83
2018-05-17T02:36:20.228Z,61.21
2018-05-17T02:37:20.502Z,61.11
2018-05-17T02:38:20.531Z,61.21
2018-05-17T02:39:20.549Z,60.64
2018-05-17T02:40:20.561Z,61.11
2018-05-17T02:41:20.365Z,61.02
2018-05-17T02:42:20.625Z,60.73
2018-05-17T02:43:20.395Z,60.83
2018-05-17T02:44:20.653Z,61.02
2018-05-17T02:45:20.669Z,60.83
2018-05-17T02:46:20.691Z,60.93
2018-05-17T02:47:20.717Z,61.02
2018-05-17T02:48:20.732Z,60.73
2018-05-17T02:49:20.919Z,60.73
2018-05-17T02:50:20.761Z,61.21
2018-05-17T02:51:20.801Z,61.31
2018-05-17T02:52:20.813Z,61.4
2018-05-17T02:53:20.553Z,61.31
2018-05-17T02:54:20.839Z,61.4
2018-05-17T02:55:20.874Z,61.21
2018-05-17T02:56:20.922Z,61.11
2018-05-17T02:57:20.911Z,61.4
2018-05-17T02:58:20.935Z,61.69
2018-05-17T02:59:20.671Z,61.69
2018-05-17T03:00:20.953Z,61.31
2018-05-17T03:01:20.982Z,61.31
2018-05-17T03:02:21.012Z,61.21
2018-05-17T03:03:20.762Z,61.31
2018-05-17T03:04:21.045Z,61.4
2018-05-17T03:05:21.050Z,61.47
2018-05-17T03:06:21.096Z,61.66
2018-05-17T03:07:21.104Z,61.6
2018-05-17T03:08:21.125Z,61.69
2018-05-17T03:09:21.151Z,61.6
2018-05-17T03:10:21.168Z,61.79
2018-05-17T03:11:21.234Z,61.79
2018-05-17T03:12:21.193Z,62.33
2018-05-17T03:13:21.208Z,61.85
2018-05-17T03:14:21.229Z,61.88
2018-05-17T03:15:21.276Z,61.98
2018-05-17T03:16:21.319Z,62.23
2018-05-17T03:17:21.314Z,62.33
2018-05-17T03:18:21.324Z,62.36
2018-05-17T03:19:21.064Z,62.33
2018-05-17T03:20:21.345Z,63.13
2018-05-17T03:21:21.382Z,62.84
2018-05-17T03:22:21.404Z,62.65
2018-05-17T03:23:21.405Z,62.84
2018-05-17T03:24:21.154Z,62.84
2018-05-17T03:25:21.203Z,62.93
2018-05-17T03:26:21.474Z,62.65
2018-05-17T03:27:21.493Z,63.03
2018-05-17T03:28:21.519Z,62.93
2018-05-17T03:29:21.523Z,62.84
2018-05-17T03:30:21.541Z,62.84
2018-05-17T03:31:21.563Z,62.65
2018-05-17T03:32:21.787Z,62.84
2018-05-17T03:33:21.335Z,62.93
2018-05-17T03:34:21.631Z,63.1
2018-05-17T03:35:21.653Z,62.9
2018-05-17T03:36:21.669Z,63.22
2018-05-17T03:37:21.413Z,62.93
2018-05-17T03:38:21.871Z,63.42
2018-05-17T03:39:21.715Z,63
2018-05-17T03:40:21.762Z,63
2018-05-17T03:41:21.757Z,63.1
2018-05-17T03:42:21.793Z,63.42
2018-05-17T03:43:21.816Z,63.1
2018-05-17T03:44:22.016Z,63.51
2018-05-17T03:45:21.855Z,63.51
2018-05-17T03:46:21.852Z,63.03
2018-05-17T03:47:21.888Z,63.48
2018-05-17T03:48:21.921Z,63.42
2018-05-17T03:49:21.648Z,63.57
2018-05-17T03:50:21.947Z,63.6
2018-05-17T03:51:21.683Z,63.48
2018-05-17T03:52:22.187Z,63.6
2018-05-17T03:53:21.998Z,63.42
2018-05-17T03:54:22.040Z,64.09
2018-05-17T03:55:22.034Z,63.8
2018-05-17T03:56:22.071Z,63.96
2018-05-17T03:57:22.096Z,64.09
2018-05-17T03:58:22.111Z,64.15
2018-05-17T03:59:22.137Z,64.05
2018-05-17T04:00:21.869Z,64.05
2018-05-17T04:01:22.264Z,63.51
2018-05-17T04:02:22.169Z,64.18
2018-05-17T04:03:22.200Z,63.6
2018-05-17T04:04:22.223Z,63.32
2018-05-17T04:05:22.223Z,63.42
2018-05-17T04:06:22.249Z,63.42
2018-05-17T04:07:22.010Z,64.28
2018-05-17T04:08:22.305Z,63.99
2018-05-17T04:09:22.313Z,64.18
2018-05-17T04:10:22.058Z,63.99
2018-05-17T04:11:22.347Z,63.96
2018-05-17T04:12:22.388Z,63.7
2018-05-17T04:13:22.378Z,63.99
2018-05-17T04:14:22.402Z,63.7
2018-05-17T04:15:22.471Z,63.7
2018-05-17T04:16:22.458Z,63.89
2018-05-17T04:17:22.468Z,63.89
2018-05-17T04:18:22.493Z,63.8
2018-05-17T04:19:22.514Z,63.89
2018-05-17T04:20:22.539Z,63.6
2018-05-17T04:21:22.554Z,63.7
2018-05-17T04:22:22.565Z,63.89
2018-05-17T04:23:22.599Z,63.42
2018-05-17T04:24:22.604Z,63.51
2018-05-17T04:25:22.618Z,63.7
2018-05-17T04:26:22.368Z,63.32
2018-05-17T04:27:22.652Z,63.57
2018-05-17T04:28:22.671Z,63.99
2018-05-17T04:29:22.442Z,63.99
2018-05-17T04:30:22.736Z,63.6
2018-05-17T04:31:22.790Z,63.32
2018-05-17T04:32:22.768Z,63.99
2018-05-17T04:33:22.772Z,63.89
2018-05-17T04:34:22.802Z,63.89
2018-05-17T04:35:22.543Z,63.89
2018-05-17T04:36:22.848Z,63.89
2018-05-17T04:37:22.855Z,63.89
2018-05-17T04:38:22.886Z,64.18
2018-05-17T04:39:22.887Z,63.89
2018-05-17T04:40:22.940Z,63.99
2018-05-17T04:41:22.938Z,63.89
2018-05-17T04:42:22.957Z,63.6
2018-05-17T04:43:22.698Z,63.99
2018-05-17T04:44:22.983Z,63.99
2018-05-17T04:45:23.011Z,64.18
2018-05-17T04:46:23.032Z,63.6
2018-05-17T04:47:23.045Z,64.28
2018-05-17T04:48:23.063Z,63.99
2018-05-17T04:49:23.085Z,64.37
2018-05-17T04:50:23.104Z,63.6
2018-05-17T04:51:22.864Z,63.6
2018-05-17T04:52:23.162Z,63.51
2018-05-17T04:53:23.182Z,63.42
2018-05-17T04:54:22.922Z,63.42
2018-05-17T04:55:23.202Z,63.32
2018-05-17T04:56:22.953Z,63.6
2018-05-17T04:57:23.261Z,63.6
2018-05-17T04:58:23.319Z,63.7
2018-05-17T04:59:23.298Z,63.32
2018-05-17T05:00:23.314Z,63.42
2018-05-17T05:01:23.055Z,63.42
2018-05-17T05:02:23.353Z,63.42
2018-05-17T05:03:23.381Z,63.42
2018-05-17T05:04:23.120Z,62.74
2018-05-17T05:05:23.415Z,63.51
2018-05-17T05:06:23.426Z,63.51
2018-05-17T05:07:23.439Z,63.13
2018-05-17T05:08:23.204Z,63.22
2018-05-17T05:09:23.230Z,62.93
2018-05-17T05:10:23.511Z,63.22
2018-05-17T05:11:23.513Z,63.22
2018-05-17T05:12:23.589Z,63.03
2018-05-17T05:13:23.290Z,63.03
2018-05-17T05:14:23.584Z,62.93
2018-05-17T05:15:23.608Z,63.32
2018-05-17T05:16:23.617Z,62.93
2018-05-17T05:17:23.634Z,62.65
2018-05-17T05:18:23.870Z,62.65
2018-05-17T05:19:23.684Z,62.55
2018-05-17T05:20:23.696Z,63.22
2018-05-17T05:22:28.151Z,62.93
2018-05-17T05:22:37.984Z,62.65
2018-05-17T05:23:38.002Z,62.65
2018-05-17T05:24:38.034Z,63.22
2018-05-17T05:25:38.051Z,62.93
2018-05-17T05:26:38.348Z,63.13
2018-05-17T05:27:38.418Z,62.93
2018-05-17T05:28:38.394Z,63.03
2018-05-17T05:29:38.392Z,63.03
2018-05-17T05:30:38.426Z,62.65
2018-05-17T05:31:38.533Z,62.74
2018-05-17T05:32:38.456Z,62.74
2018-05-17T05:33:38.463Z,62.93
2018-05-17T05:34:38.485Z,62.65
2018-05-17T05:35:38.501Z,62.93
2018-05-17T05:36:38.531Z,62.93
2018-05-17T05:37:38.726Z,62.84
2018-05-17T05:38:38.561Z,62.84
2018-05-17T05:39:38.586Z,62.84
2018-05-17T05:40:38.607Z,62.65
2018-05-17T05:41:38.357Z,62.68
2018-05-17T05:42:38.639Z,62.59
2018-05-17T05:43:38.662Z,62.68
2018-05-17T05:44:38.700Z,62.87
2018-05-17T05:45:38.441Z,62.96
2018-05-17T05:46:38.726Z,62.87
2018-05-17T05:47:38.488Z,62.2
2018-05-17T05:48:38.770Z,62.1
2018-05-17T05:49:39.035Z,62.49
2018-05-17T05:50:38.818Z,62.59
2018-05-17T05:51:38.834Z,62.68
2018-05-17T05:52:38.842Z,63.16
2018-05-17T05:53:38.593Z,62.77
2018-05-17T05:54:38.614Z,62.39
2018-05-17T05:55:38.913Z,62.39
2018-05-17T05:56:38.657Z,62.3
2018-05-17T05:57:38.943Z,62.2
2018-05-17T05:58:38.980Z,62.2
2018-05-17T05:59:38.993Z,62.39
2018-05-17T06:00:38.995Z,62.01
2018-05-17T06:01:39.034Z,62.1
2018-05-17T06:02:39.339Z,62.1
2018-05-17T06:03:39.054Z,61.91
2018-05-17T06:04:39.097Z,62.2
2018-05-17T06:05:39.105Z,61.72
2018-05-17T06:06:39.122Z,62.1
2018-05-17T06:07:39.154Z,61.72
2018-05-17T06:08:39.170Z,62.1
2018-05-17T06:09:39.174Z,62.01
2018-05-17T06:10:39.206Z,61.91
2018-05-17T06:11:39.229Z,62.01
2018-05-17T06:12:39.237Z,61.82
2018-05-17T06:13:39.254Z,62.1
2018-05-17T06:14:39.276Z,62.2
2018-05-17T06:15:39.298Z,62.2
2018-05-17T06:16:39.332Z,62.2
2018-05-17T06:17:39.357Z,61.63
2018-05-17T06:18:39.365Z,61.82
2018-05-17T06:19:39.380Z,61.63
2018-05-17T06:20:39.413Z,61.43
2018-05-17T06:21:39.154Z,61.34
2018-05-17T06:22:39.458Z,61.63
2018-05-17T06:23:39.509Z,61.15
2018-05-17T06:24:39.489Z,61.24
2018-05-17T06:25:39.509Z,61.63
2018-05-17T06:26:39.510Z,61.63
2018-05-17T06:27:39.270Z,61.63
2018-05-17T06:28:39.549Z,61.05
2018-05-17T06:29:39.572Z,61.53
2018-05-17T06:30:39.332Z,61.53
2018-05-17T06:31:39.365Z,61.34
2018-05-17T06:32:39.643Z,61.15
2018-05-17T06:33:39.654Z,61.24
2018-05-17T06:34:39.681Z,61.05
2018-05-17T06:35:39.705Z,61.43
2018-05-17T06:36:39.451Z,61.15
2018-05-17T06:37:39.801Z,61.05
2018-05-17T06:38:39.772Z,60.96
2018-05-17T06:39:39.775Z,60.96
2018-05-17T06:40:39.803Z,60.96
2018-05-17T06:41:39.540Z,61.34
2018-05-17T06:42:39.846Z,61.43
2018-05-17T06:43:39.853Z,61.34
2018-05-17T06:44:39.869Z,61.53
2018-05-17T06:45:39.627Z,61.24
2018-05-17T06:46:39.644Z,61.63
2018-05-17T06:47:39.933Z,61.43
2018-05-17T06:48:39.964Z,60.96
2018-05-17T06:49:39.975Z,60.86
2018-05-17T06:50:39.992Z,60.57
2018-05-17T06:51:39.746Z,60.96
2018-05-17T06:52:40.032Z,60.57
2018-05-17T06:53:40.060Z,60.76
2018-05-17T06:54:40.086Z,60.76
2018-05-17T06:55:40.111Z,60.67
2018-05-17T06:56:40.126Z,60.86
2018-05-17T06:57:39.875Z,60.96
2018-05-17T06:58:40.148Z,60.86
2018-05-17T06:59:40.170Z,61.05
2018-05-17T07:00:40.352Z,61.15
2018-05-17T07:01:40.212Z,61.24
2018-05-17T07:02:40.228Z,60.57
2018-05-17T07:03:40.270Z,60.67
2018-05-17T07:04:40.266Z,60.86
2018-05-17T07:05:40.322Z,60.86
2018-05-17T07:06:40.308Z,60.86
2018-05-17T07:07:40.338Z,60.47
2018-05-17T07:08:40.353Z,60.38
2018-05-17T07:09:40.387Z,60.38
2018-05-17T07:10:40.401Z,60.47
2018-05-17T07:11:40.411Z,60.38
2018-05-17T07:12:40.428Z,60.47
2018-05-17T07:13:40.466Z,60.38
2018-05-17T07:14:40.473Z,60.5
2018-05-17T07:15:40.491Z,60.57
2018-05-17T07:16:40.532Z,60.5
2018-05-17T07:17:40.529Z,60.41
2018-05-17T07:18:41.883Z,60.19
2018-05-17T07:19:40.309Z,60.6
2018-05-17T07:20:40.610Z,60.28
2018-05-17T07:21:40.624Z,60.47
2018-05-17T07:22:40.357Z,60.38
2018-05-17T07:23:40.646Z,60.41
2018-05-17T07:24:40.680Z,60.22
2018-05-17T07:25:40.702Z,60.5
2018-05-17T07:26:40.439Z,60.31
2018-05-17T07:27:40.748Z,60.31
2018-05-17T07:28:40.755Z,60.31
2018-05-17T07:29:40.787Z,60.12
2018-05-17T07:30:40.784Z,60.12
2018-05-17T07:31:40.816Z,60.22
2018-05-17T07:32:40.857Z,60.12
2018-05-17T07:33:40.683Z,60.12
2018-05-17T07:34:40.880Z,60.12
2018-05-17T07:35:40.895Z,60.41
2018-05-17T07:36:40.911Z,60.5
2018-05-17T07:37:40.940Z,60.03
2018-05-17T07:38:40.968Z,59.74
2018-05-17T07:39:40.968Z,59.64
2018-05-17T07:40:40.991Z,59.83
2018-05-17T07:41:41.102Z,59.83
2018-05-17T07:42:41.026Z,60.12
2018-05-17T07:43:41.065Z,59.93
2018-05-17T07:44:40.808Z,59.64
2018-05-17T07:45:41.109Z,59.55
2018-05-17T07:46:41.301Z,59.55
2018-05-17T07:47:40.864Z,59.64
2018-05-17T07:48:41.198Z,59.64
2018-05-17T07:49:40.915Z,59.26
2018-05-17T07:50:41.215Z,59.64
2018-05-17T07:51:41.226Z,59.74
2018-05-17T07:52:41.227Z,59.83
2018-05-17T07:53:41.244Z,59.36
2018-05-17T07:54:41.009Z,59.83
2018-05-17T07:55:41.479Z,59.16
2018-05-17T07:56:41.307Z,59.06
2018-05-17T07:57:41.421Z,59.16
2018-05-17T07:58:41.360Z,59.36
2018-05-17T07:59:41.107Z,59.06
2018-05-17T08:00:41.409Z,59.36
2018-05-17T08:01:41.488Z,59.36
2018-05-17T08:02:41.430Z,59.45
2018-05-17T08:03:41.195Z,59.36
2018-05-17T08:04:41.477Z,59.26
2018-05-17T08:05:41.222Z,58.78
2018-05-17T08:06:41.524Z,58.59
2018-05-17T08:07:41.541Z,59.16
2018-05-17T08:08:41.560Z,58.87
2018-05-17T08:09:41.568Z,58.87
2018-05-17T08:10:41.607Z,58.87
2018-05-17T08:11:41.627Z,58.97
2018-05-17T08:12:41.643Z,59.16
2018-05-17T08:13:41.659Z,59.06
2018-05-17T08:14:41.675Z,59.26
2018-05-17T08:15:41.699Z,59.26
2018-05-17T08:16:41.711Z,59.26
2018-05-17T08:17:41.728Z,58.01
2018-05-17T08:18:41.768Z,58.69
2018-05-17T08:19:41.788Z,58.69
2018-05-17T08:20:41.539Z,58.49
2018-05-17T08:21:41.558Z,58.2
2018-05-17T08:22:41.835Z,58.3
2018-05-17T08:23:41.864Z,58.49
2018-05-17T08:24:41.889Z,58.2
2018-05-17T08:25:41.636Z,58.11
2018-05-17T08:26:41.931Z,58.04
2018-05-17T08:27:41.939Z,57.92
2018-05-17T08:28:41.958Z,58.11
2018-05-17T08:29:41.968Z,57.92
2018-05-17T08:30:41.991Z,58.14
2018-05-17T08:31:42.018Z,58.01
2018-05-17T08:32:42.031Z,58.04
2018-05-17T08:33:41.797Z,57.65
2018-05-17T08:34:42.079Z,57.85
2018-05-17T08:35:42.095Z,57.65
2018-05-17T08:36:42.245Z,57.53
2018-05-17T08:37:42.145Z,57.56
2018-05-17T08:38:42.161Z,57.65
2018-05-17T08:39:42.172Z,57.65
2018-05-17T08:40:41.937Z,57.65
2018-05-17T08:41:41.948Z,57.08
2018-05-17T08:42:42.386Z,57.46
2018-05-17T08:43:42.278Z,57.56
2018-05-17T08:44:42.286Z,57.18
2018-05-17T08:45:42.095Z,57.37
2018-05-17T08:46:42.348Z,57.37
2018-05-17T08:47:42.336Z,57.18
2018-05-17T08:48:42.378Z,56.98
2018-05-17T08:49:42.391Z,57.18
2018-05-17T08:50:42.419Z,57.28
2018-05-17T08:51:42.420Z,57.18
2018-05-17T08:52:42.468Z,57.08
2018-05-17T08:53:42.203Z,57.46
2018-05-17T08:54:42.494Z,56.89
2018-05-17T08:55:42.523Z,56.7
2018-05-17T08:56:42.528Z,57.56
2018-05-17T08:57:42.560Z,56.79
2018-05-17T08:58:42.574Z,57.65
2018-05-17T08:59:42.610Z,57.08
2018-05-17T09:00:42.604Z,56.89
2018-05-17T09:01:42.625Z,56.89
2018-05-17T09:02:42.385Z,56.7
2018-05-17T09:03:42.690Z,56.89
2018-05-17T09:04:42.707Z,56.98
2018-05-17T09:05:42.449Z,56.6
2018-05-17T09:06:42.738Z,56.51
2018-05-17T09:07:42.748Z,56.7
2018-05-17T09:08:42.799Z,56.7
2018-05-17T09:09:42.786Z,56.12
2018-05-17T09:10:42.824Z,56.7
2018-05-17T09:11:42.853Z,56.34
2018-05-17T09:12:42.862Z,56.98
2018-05-17T09:13:43.003Z,56.6
2018-05-17T09:14:43.011Z,56.34
2018-05-17T09:15:42.641Z,56.51
2018-05-17T09:16:42.980Z,55.93
2018-05-17T09:17:43.034Z,56.12
2018-05-17T09:18:42.979Z,55.77
2018-05-17T09:19:42.737Z,56.02
2018-05-17T09:20:43.016Z,56.24
2018-05-17T09:21:43.034Z,56.24
2018-05-17T09:22:43.068Z,55.77
2018-05-17T09:23:43.093Z,56.05
2018-05-17T09:24:42.846Z,56.05
2018-05-17T09:25:42.850Z,55.67
2018-05-17T09:26:43.141Z,55.67
2018-05-17T09:27:43.173Z,55.67
2018-05-17T09:28:43.178Z,55.96
2018-05-17T09:29:42.930Z,56.05
2018-05-17T09:30:43.236Z,55.77
2018-05-17T09:31:43.241Z,55.96
2018-05-17T09:32:43.255Z,55.67
2018-05-17T09:33:43.279Z,55.57
2018-05-17T09:34:43.312Z,55.67
2018-05-17T09:35:43.405Z,55.86
2018-05-17T09:36:43.345Z,55.57
2018-05-17T09:37:43.093Z,55.29
2018-05-17T09:38:43.388Z,55.47
2018-05-17T09:39:43.410Z,55.19
2018-05-17T09:40:43.429Z,55.19
2018-05-17T09:41:43.445Z,54.61
2018-05-17T09:42:43.205Z,55.22
2018-05-17T09:43:43.497Z,54.74
2018-05-17T09:44:43.504Z,54.33
2018-05-17T09:45:43.524Z,54.25
2018-05-17T09:46:43.548Z,54.64
2018-05-17T09:47:43.784Z,54.83
2018-05-17T09:48:43.603Z,54.55
2018-05-17T09:49:43.625Z,54.06
2018-05-17T09:50:43.632Z,54.93
2018-05-17T09:51:43.658Z,55.02
2018-05-17T09:52:43.670Z,54.55
2018-05-17T09:53:43.690Z,53.78
2018-05-17T09:54:43.734Z,53.68
2018-05-17T09:55:43.746Z,54.35
2018-05-17T09:56:43.758Z,54.83
2018-05-17T09:57:43.512Z,54.06
2018-05-17T09:58:43.794Z,54.16
2018-05-17T09:59:43.831Z,53.87
2018-05-17T10:00:43.835Z,53.49
2018-05-17T10:01:43.863Z,53.78
2018-05-17T10:02:43.875Z,53.68
2018-05-17T10:03:43.917Z,53.78
2018-05-17T10:04:43.923Z,53.3
2018-05-17T10:05:44.017Z,53.01
2018-05-17T10:06:43.976Z,53.52
2018-05-17T10:07:43.981Z,53.32
2018-05-17T10:08:44.014Z,53.23
2018-05-17T10:09:43.773Z,53.13
2018-05-17T10:10:44.163Z,53.42
2018-05-17T10:11:44.080Z,52.75
2018-05-17T10:12:44.105Z,53.03
2018-05-17T10:13:44.120Z,52.65
2018-05-17T10:14:44.326Z,52.84
2018-05-17T10:15:44.169Z,52.65
2018-05-17T10:16:43.907Z,52.75
2018-05-17T10:17:44.205Z,52.48
2018-05-17T10:18:44.224Z,52.48
2018-05-17T10:19:44.239Z,52.2
2018-05-17T10:20:44.253Z,52.1
2018-05-17T10:21:44.014Z,52.1
2018-05-17T10:22:44.310Z,52
2018-05-17T10:23:44.336Z,51.91
2018-05-17T10:24:44.420Z,51.72
2018-05-17T10:25:44.422Z,51.91
2018-05-17T10:26:44.388Z,51.72
2018-05-17T10:27:44.150Z,51.81
2018-05-17T10:28:44.170Z,51.62
2018-05-17T10:29:44.448Z,51.53
2018-05-17T10:30:59.092Z,50.95
2018-05-17T10:31:44.515Z,51.23
2018-05-17T10:32:44.531Z,51.07
2018-05-17T10:33:44.530Z,50.87
2018-05-17T10:34:44.550Z,50.68
2018-05-17T10:35:44.319Z,51.17
2018-05-17T10:36:44.679Z,50.78
2018-05-17T10:37:44.618Z,50.68
2018-05-17T10:38:44.638Z,50.4
2018-05-17T10:39:44.684Z,50.3
2018-05-17T10:40:44.434Z,50.2
2018-05-17T10:41:44.706Z,50.87
2018-05-17T10:42:44.735Z,50.49
2018-05-17T10:43:44.767Z,50.01
2018-05-17T10:44:44.781Z,50.1
2018-05-17T10:45:44.524Z,51.07
2018-05-17T10:46:44.543Z,50.42
2018-05-17T10:47:44.842Z,50.71
2018-05-17T10:48:44.858Z,50.32
2018-05-17T10:49:44.886Z,50.23
2018-05-17T10:50:44.639Z,49.94
2018-05-17T10:51:44.932Z,50.51
2018-05-17T10:52:44.953Z,50.04
2018-05-17T10:53:44.964Z,49.65
2018-05-17T10:54:44.992Z,49.46
2018-05-17T10:55:45.012Z,49.65
2018-05-17T10:56:45.027Z,48.9
2018-05-17T10:57:45.069Z,48.69
2018-05-17T10:58:44.808Z,48.71
2018-05-17T10:59:45.097Z,48.71
2018-05-17T11:00:44.859Z,48.33
2018-05-17T11:01:45.160Z,48.71
2018-05-17T11:02:45.292Z,48.61
2018-05-17T11:03:44.929Z,48.33
2018-05-17T11:04:44.950Z,48.16
2018-05-17T11:05:45.230Z,48.64
2018-05-17T11:06:45.258Z,48.25
2018-05-17T11:07:45.269Z,48.35
2018-05-17T11:08:45.306Z,48.25
2018-05-17T11:09:45.330Z,47.87
2018-05-17T11:10:45.097Z,47.87
2018-05-17T11:11:45.361Z,48.35
2018-05-17T11:12:45.131Z,48.25
2018-05-17T11:13:45.137Z,48.38
2018-05-17T11:14:45.663Z,48.38
2018-05-17T11:15:45.462Z,48.47
2018-05-17T11:16:45.478Z,47.8
2018-05-17T11:17:45.494Z,47.7
2018-05-17T11:18:45.248Z,47.41
2018-05-17T11:19:45.548Z,47.41
2018-05-17T11:20:45.304Z,47.7
2018-05-17T11:21:45.597Z,46.86
2018-05-17T11:22:45.359Z,46.93
2018-05-17T11:23:45.639Z,46.95
2018-05-17T11:24:45.660Z,47.14
2018-05-17T11:25:45.685Z,46.47
2018-05-17T11:26:45.760Z,46.66
2018-05-17T11:27:45.771Z,46.47
2018-05-17T11:28:45.744Z,45.79
2018-05-17T11:29:45.776Z,45.31
2018-05-17T11:30:45.789Z,45.43
2018-05-17T11:31:45.824Z,45.14
2018-05-17T11:32:45.852Z,45.04
2018-05-17T11:33:45.873Z,45.14
2018-05-17T11:34:45.879Z,45.14
2018-05-17T11:35:45.920Z,45.04
2018-05-17T11:36:45.670Z,45.14
2018-05-17T11:37:45.678Z,45.24
2018-05-17T11:38:45.986Z,44.95
2018-05-17T11:39:45.997Z,44.66
2018-05-17T11:40:46.035Z,44.27
2018-05-17T11:41:46.044Z,44.08
2018-05-17T11:42:46.061Z,43.89
2018-05-17T11:43:45.834Z,44.27
2018-05-17T11:44:45.835Z,44.59
2018-05-17T11:45:46.145Z,44.85
2018-05-17T11:46:46.149Z,44.56
2018-05-17T11:47:45.922Z,44.59
2018-05-17T11:48:46.215Z,44.59
2018-05-17T11:49:46.234Z,44.29
2018-05-17T11:50:45.982Z,44.68
2018-05-17T11:51:46.267Z,44.59
2018-05-17T11:52:46.023Z,44.59
2018-05-17T11:53:46.063Z,44.29
2018-05-17T11:54:46.078Z,43.72
2018-05-17T11:55:46.378Z,43.91
2018-05-17T11:56:46.399Z,43.72
2018-05-17T11:57:46.427Z,43.52
2018-05-17T11:58:46.439Z,43.72
2018-05-17T11:59:46.196Z,43.91
2018-05-17T12:00:46.494Z,44.2
2018-05-17T12:01:46.510Z,44.7
2018-05-17T12:02:46.826Z,44.8
2018-05-17T12:03:46.550Z,44.42
2018-05-17T12:04:46.565Z,44.32
2018-05-17T12:05:46.606Z,44.03
2018-05-17T12:06:46.717Z,43.74
2018-05-17T12:07:46.388Z,43.45
2018-05-17T12:08:46.678Z,43.66
2018-05-17T12:09:46.716Z,43.85
2018-05-17T12:10:46.729Z,44.05
2018-05-17T12:11:46.739Z,43.66
2018-05-17T12:12:46.756Z,43.47
2018-05-17T12:13:46.782Z,43.47
2018-05-17T12:14:46.548Z,42.79
2018-05-17T12:15:46.839Z,43.28
2018-05-17T12:16:46.873Z,42.41
2018-05-17T12:17:46.899Z,42.41
2018-05-17T12:18:46.651Z,42.31
2018-05-17T12:19:46.947Z,41.93
2018-05-17T12:20:46.967Z,41.93
2018-05-17T12:21:47.044Z,42.04
2018-05-17T12:22:47.009Z,41.94
2018-05-17T12:23:47.033Z,42.24
2018-05-17T12:24:47.046Z,42.24
2018-05-17T12:25:47.076Z,42.33
2018-05-17T12:26:47.102Z,42.43
2018-05-17T12:27:47.124Z,42.14
2018-05-17T12:28:47.163Z,42.07
2018-05-17T12:29:47.183Z,42.16
2018-05-17T12:30:47.204Z,41.48
2018-05-17T12:31:47.395Z,41.48
2018-05-17T12:32:47.259Z,41.11
2018-05-17T12:33:46.998Z,41.21
2018-05-17T12:34:47.034Z,40.63
2018-05-17T12:35:47.057Z,40.15
2018-05-17T12:36:47.349Z,40.26
2018-05-17T12:37:47.109Z,39.88
2018-05-17T12:38:47.385Z,39.97
2018-05-17T12:39:47.431Z,39.8
2018-05-17T12:40:47.171Z,39.61
2018-05-17T12:41:47.483Z,39.41
2018-05-17T12:42:47.657Z,39.12
2018-05-17T12:43:47.521Z,39.22
2018-05-17T12:44:47.266Z,39.14
2018-05-17T12:45:47.565Z,39.43
2018-05-17T12:46:47.581Z,39.22
2018-05-17T12:47:47.624Z,38.95
2018-05-17T12:48:47.630Z,38.83
2018-05-17T12:49:47.667Z,38.64
2018-05-17T12:50:47.881Z,38.73
2018-05-17T12:51:47.443Z,38.93
2018-05-17T12:52:47.737Z,38.73
2018-05-17T12:53:47.773Z,39.03
2018-05-17T12:54:47.796Z,39.03
2018-05-17T12:55:47.810Z,38.73